sensor_id;sensor_type;location;lat;lon;timestamp;temperature;humidity
43997;DHT22;34318;45.818;15.964;2022-09-01T00:01:46;24.70;62.30
43997;DHT22;34318;45.818;15.964;2022-09-01T00:04:17;24.70;62.00
43997;DHT22;34318;45.818;15.964;2022-09-01T00:06:45;24.90;60.40
43997;DHT22;34318;45.818;15.964;2022-09-01T00:09:17;24.80;60.40
43997;DHT22;34318;45.818;15.964;2022-09-01T00:11:48;24.90;60.40
43997;DHT22;34318;45.818;15.964;2022-09-01T00:14:25;24.90;59.60
43997;DHT22;34318;45.818;15.964;2022-09-01T00:17:02;24.90;60.10
43997;DHT22;34318;45.818;15.964;2022-09-01T00:19:32;24.90;61.00
43997;DHT22;34318;45.818;15.964;2022-09-01T00:21:59;24.90;60.40
43997;DHT22;34318;45.818;15.964;2022-09-01T00:24:26;24.90;61.20
43997;DHT22;34318;45.818;15.964;2022-09-01T00:26:54;25.00;60.40
43997;DHT22;34318;45.818;15.964;2022-09-01T00:29:23;24.90;60.40
43997;DHT22;34318;45.818;15.964;2022-09-01T00:31:50;25.00;60.00
43997;DHT22;34318;45.818;15.964;2022-09-01T00:34:17;24.90;59.70
43997;DHT22;34318;45.818;15.964;2022-09-01T00:36:43;24.90;60.20
43997;DHT22;34318;45.818;15.964;2022-09-01T00:39:12;24.90;59.90
43997;DHT22;34318;45.818;15.964;2022-09-01T00:41:40;24.90;59.50
43997;DHT22;34318;45.818;15.964;2022-09-01T00:44:14;24.90;59.80
43997;DHT22;34318;45.818;15.964;2022-09-01T00:46:46;24.90;59.30
43997;DHT22;34318;45.818;15.964;2022-09-01T00:49:38;24.90;59.00
43997;DHT22;34318;45.818;15.964;2022-09-01T00:52:22;24.90;58.90
43997;DHT22;34318;45.818;15.964;2022-09-01T00:54:59;24.90;59.60
43997;DHT22;34318;45.818;15.964;2022-09-01T00:57:27;24.80;59.60
43997;DHT22;34318;45.818;15.964;2022-09-01T01:00:03;24.90;58.70
43997;DHT22;34318;45.818;15.964;2022-09-01T01:02:31;24.80;59.30
43997;DHT22;34318;45.818;15.964;2022-09-01T01:04:58;24.90;59.50
43997;DHT22;34318;45.818;15.964;2022-09-01T01:07:27;24.80;58.90
43997;DHT22;34318;45.818;15.964;2022-09-01T01:09:54;24.90;58.50
43997;DHT22;34318;45.818;15.964;2022-09-01T01:12:21;24.90;58.60
43997;DHT22;34318;45.818;15.964;2022-09-01T01:14:49;24.70;59.00
43997;DHT22;34318;45.818;15.964;2022-09-01T01:17:18;24.80;59.10
43997;DHT22;34318;45.818;15.964;2022-09-01T01:19:46;24.80;59.10
43997;DHT22;34318;45.818;15.964;2022-09-01T01:25:34;24.70;60.60
43997;DHT22;34318;45.818;15.964;2022-09-01T01:28:17;24.60;61.20
43997;DHT22;34318;45.818;15.964;2022-09-01T01:30:53;24.60;60.70
43997;DHT22;34318;45.818;15.964;2022-09-01T01:33:24;24.70;60.10
43997;DHT22;34318;45.818;15.964;2022-09-01T01:35:53;24.70;60.00
43997;DHT22;34318;45.818;15.964;2022-09-01T01:38:24;24.70;59.30
43997;DHT22;34318;45.818;15.964;2022-09-01T01:40:52;24.90;59.00
43997;DHT22;34318;45.818;15.964;2022-09-01T01:43:22;24.80;59.10
43997;DHT22;34318;45.818;15.964;2022-09-01T01:45:53;24.80;59.10
43997;DHT22;34318;45.818;15.964;2022-09-01T01:48:21;24.80;59.20
43997;DHT22;34318;45.818;15.964;2022-09-01T01:50:51;24.80;59.50
43997;DHT22;34318;45.818;15.964;2022-09-01T01:53:19;24.90;59.50
43997;DHT22;34318;45.818;15.964;2022-09-01T01:55:47;24.80;59.30
43997;DHT22;34318;45.818;15.964;2022-09-01T01:58:19;24.90;59.20
43997;DHT22;34318;45.818;15.964;2022-09-01T02:00:49;24.80;59.20
43997;DHT22;34318;45.818;15.964;2022-09-01T02:03:18;24.80;59.40
43997;DHT22;34318;45.818;15.964;2022-09-01T02:05:49;24.50;60.40
43997;DHT22;34318;45.818;15.964;2022-09-01T02:08:17;24.60;59.90
43997;DHT22;34318;45.818;15.964;2022-09-01T02:10:49;24.70;59.50
43997;DHT22;34318;45.818;15.964;2022-09-01T02:13:19;24.70;59.50
43997;DHT22;34318;45.818;15.964;2022-09-01T02:15:51;24.80;59.10
43997;DHT22;34318;45.818;15.964;2022-09-01T02:18:34;24.80;58.80
43997;DHT22;34318;45.818;15.964;2022-09-01T02:21:05;24.70;58.90
43997;DHT22;34318;45.818;15.964;2022-09-01T02:23:40;24.70;59.20
43997;DHT22;34318;45.818;15.964;2022-09-01T02:26:09;24.60;59.20
43997;DHT22;34318;45.818;15.964;2022-09-01T02:28:44;24.70;59.60
43997;DHT22;34318;45.818;15.964;2022-09-01T02:31:19;24.70;59.50
43997;DHT22;34318;45.818;15.964;2022-09-01T02:33:46;24.60;60.00
43997;DHT22;34318;45.818;15.964;2022-09-01T02:36:16;24.70;59.60
43997;DHT22;34318;45.818;15.964;2022-09-01T02:38:45;24.50;60.20
43997;DHT22;34318;45.818;15.964;2022-09-01T02:41:20;24.50;60.50
43997;DHT22;34318;45.818;15.964;2022-09-01T02:43:49;24.50;60.30
43997;DHT22;34318;45.818;15.964;2022-09-01T02:46:16;24.30;60.80
43997;DHT22;34318;45.818;15.964;2022-09-01T02:48:45;24.30;60.70
43997;DHT22;34318;45.818;15.964;2022-09-01T02:51:18;24.20;62.20
43997;DHT22;34318;45.818;15.964;2022-09-01T02:53:46;24.30;61.00
43997;DHT22;34318;45.818;15.964;2022-09-01T02:56:20;24.40;60.60
43997;DHT22;34318;45.818;15.964;2022-09-01T02:58:52;24.50;60.10
43997;DHT22;34318;45.818;15.964;2022-09-01T03:01:26;24.50;60.10
43997;DHT22;34318;45.818;15.964;2022-09-01T03:03:58;24.60;60.00
43997;DHT22;34318;45.818;15.964;2022-09-01T03:06:26;24.30;62.20
43997;DHT22;34318;45.818;15.964;2022-09-01T03:08:55;24.30;61.60
43997;DHT22;34318;45.818;15.964;2022-09-01T03:11:26;24.30;61.70
43997;DHT22;34318;45.818;15.964;2022-09-01T03:13:53;24.30;62.60
43997;DHT22;34318;45.818;15.964;2022-09-01T03:16:23;24.30;61.50
43997;DHT22;34318;45.818;15.964;2022-09-01T03:18:50;24.30;61.70
43997;DHT22;34318;45.818;15.964;2022-09-01T03:21:18;24.40;61.20
43997;DHT22;34318;45.818;15.964;2022-09-01T03:23:47;24.50;60.90
43997;DHT22;34318;45.818;15.964;2022-09-01T03:26:15;24.50;60.80
43997;DHT22;34318;45.818;15.964;2022-09-01T03:28:45;24.50;61.00
43997;DHT22;34318;45.818;15.964;2022-09-01T03:31:12;24.60;61.00
43997;DHT22;34318;45.818;15.964;2022-09-01T03:33:40;24.60;61.30
43997;DHT22;34318;45.818;15.964;2022-09-01T03:36:07;24.50;61.60
43997;DHT22;34318;45.818;15.964;2022-09-01T03:38:40;24.50;61.70
43997;DHT22;34318;45.818;15.964;2022-09-01T03:41:10;24.50;62.20
43997;DHT22;34318;45.818;15.964;2022-09-01T03:43:39;24.50;62.40
43997;DHT22;34318;45.818;15.964;2022-09-01T03:46:15;24.50;62.90
43997;DHT22;34318;45.818;15.964;2022-09-01T03:48:51;24.50;63.40
43997;DHT22;34318;45.818;15.964;2022-09-01T03:51:19;24.40;63.90
43997;DHT22;34318;45.818;15.964;2022-09-01T03:53:52;24.40;64.40
43997;DHT22;34318;45.818;15.964;2022-09-01T03:56:21;24.40;64.40
43997;DHT22;34318;45.818;15.964;2022-09-01T03:58:49;24.40;64.60
43997;DHT22;34318;45.818;15.964;2022-09-01T04:01:18;24.50;64.70
43997;DHT22;34318;45.818;15.964;2022-09-01T04:03:45;24.50;64.80
43997;DHT22;34318;45.818;15.964;2022-09-01T04:06:15;24.30;65.20
43997;DHT22;34318;45.818;15.964;2022-09-01T04:08:45;24.30;65.60
43997;DHT22;34318;45.818;15.964;2022-09-01T04:11:18;24.30;66.10
43997;DHT22;34318;45.818;15.964;2022-09-01T04:13:49;24.20;66.30
43997;DHT22;34318;45.818;15.964;2022-09-01T04:19:06;24.20;66.70
43997;DHT22;34318;45.818;15.964;2022-09-01T04:21:47;24.10;66.70
43997;DHT22;34318;45.818;15.964;2022-09-01T04:24:17;24.40;65.40
43997;DHT22;34318;45.818;15.964;2022-09-01T04:26:45;24.30;65.60
43997;DHT22;34318;45.818;15.964;2022-09-01T04:29:15;24.40;65.10
43997;DHT22;34318;45.818;15.964;2022-09-01T04:31:44;24.40;65.00
43997;DHT22;34318;45.818;15.964;2022-09-01T04:34:20;24.50;65.20
43997;DHT22;34318;45.818;15.964;2022-09-01T04:36:48;24.50;65.20
43997;DHT22;34318;45.818;15.964;2022-09-01T04:39:20;24.30;66.00
43997;DHT22;34318;45.818;15.964;2022-09-01T04:41:48;24.30;66.20
43997;DHT22;34318;45.818;15.964;2022-09-01T04:44:16;24.30;66.30
43997;DHT22;34318;45.818;15.964;2022-09-01T04:46:45;24.40;66.20
43997;DHT22;34318;45.818;15.964;2022-09-01T04:49:15;24.40;66.30
43997;DHT22;34318;45.818;15.964;2022-09-01T04:51:49;24.40;66.10
43997;DHT22;34318;45.818;15.964;2022-09-01T04:54:20;24.40;66.20
43997;DHT22;34318;45.818;15.964;2022-09-01T04:56:49;24.40;66.20
43997;DHT22;34318;45.818;15.964;2022-09-01T04:59:19;24.40;66.00
43997;DHT22;34318;45.818;15.964;2022-09-01T05:01:48;24.40;66.20
43997;DHT22;34318;45.818;15.964;2022-09-01T05:04:22;24.40;65.60
43997;DHT22;34318;45.818;15.964;2022-09-01T05:06:55;24.30;66.00
43997;DHT22;34318;45.818;15.964;2022-09-01T05:09:27;24.20;66.20
43997;DHT22;34318;45.818;15.964;2022-09-01T05:11:56;24.30;65.80
43997;DHT22;34318;45.818;15.964;2022-09-01T05:14:23;24.30;65.90
43997;DHT22;34318;45.818;15.964;2022-09-01T05:16:58;24.30;65.40
43997;DHT22;34318;45.818;15.964;2022-09-01T05:19:26;24.20;65.80
43997;DHT22;34318;45.818;15.964;2022-09-01T05:21:55;24.30;65.20
43997;DHT22;34318;45.818;15.964;2022-09-01T05:24:23;24.30;64.90
43997;DHT22;34318;45.818;15.964;2022-09-01T05:26:56;24.30;65.20
43997;DHT22;34318;45.818;15.964;2022-09-01T05:29:23;24.30;64.40
43997;DHT22;34318;45.818;15.964;2022-09-01T05:31:54;24.30;65.10
43997;DHT22;34318;45.818;15.964;2022-09-01T05:34:21;24.30;64.50
43997;DHT22;34318;45.818;15.964;2022-09-01T05:36:54;24.30;64.40
43997;DHT22;34318;45.818;15.964;2022-09-01T05:39:24;24.30;64.60
43997;DHT22;34318;45.818;15.964;2022-09-01T05:41:51;24.30;64.30
43997;DHT22;34318;45.818;15.964;2022-09-01T05:44:20;24.30;64.10
43997;DHT22;34318;45.818;15.964;2022-09-01T05:46:50;24.20;64.30
43997;DHT22;34318;45.818;15.964;2022-09-01T05:49:18;24.20;64.40
43997;DHT22;34318;45.818;15.964;2022-09-01T05:51:48;24.20;63.60
43997;DHT22;34318;45.818;15.964;2022-09-01T05:54:22;24.20;64.20
43997;DHT22;34318;45.818;15.964;2022-09-01T05:56:54;24.20;63.80
43997;DHT22;34318;45.818;15.964;2022-09-01T05:59:43;24.20;63.30
43997;DHT22;34318;45.818;15.964;2022-09-01T06:02:12;24.10;64.00
43997;DHT22;34318;45.818;15.964;2022-09-01T06:04:39;24.10;63.40
43997;DHT22;34318;45.818;15.964;2022-09-01T06:07:06;24.10;63.50
43997;DHT22;34318;45.818;15.964;2022-09-01T06:09:43;24.10;63.80
43997;DHT22;34318;45.818;15.964;2022-09-01T06:12:11;24.00;63.70
43997;DHT22;34318;45.818;15.964;2022-09-01T06:14:44;24.10;63.40
43997;DHT22;34318;45.818;15.964;2022-09-01T06:17:14;24.10;63.30
43997;DHT22;34318;45.818;15.964;2022-09-01T06:19:45;24.10;63.30
43997;DHT22;34318;45.818;15.964;2022-09-01T06:22:12;24.10;62.40
43997;DHT22;34318;45.818;15.964;2022-09-01T06:24:39;24.10;61.50
43997;DHT22;34318;45.818;15.964;2022-09-01T06:27:10;24.20;61.40
43997;DHT22;34318;45.818;15.964;2022-09-01T06:29:37;24.10;61.20
43997;DHT22;34318;45.818;15.964;2022-09-01T06:32:07;24.20;61.40
43997;DHT22;34318;45.818;15.964;2022-09-01T06:34:39;24.30;61.50
43997;DHT22;34318;45.818;15.964;2022-09-01T06:37:09;24.20;61.40
43997;DHT22;34318;45.818;15.964;2022-09-01T06:39:36;24.20;61.60
43997;DHT22;34318;45.818;15.964;2022-09-01T06:42:04;24.20;61.50
43997;DHT22;34318;45.818;15.964;2022-09-01T06:44:32;24.30;61.30
43997;DHT22;34318;45.818;15.964;2022-09-01T06:46:59;24.20;61.70
43997;DHT22;34318;45.818;15.964;2022-09-01T06:49:26;24.30;61.80
43997;DHT22;34318;45.818;15.964;2022-09-01T06:52:01;24.20;62.90
43997;DHT22;34318;45.818;15.964;2022-09-01T06:54:29;24.20;62.50
43997;DHT22;34318;45.818;15.964;2022-09-01T06:57:02;24.20;62.60
43997;DHT22;34318;45.818;15.964;2022-09-01T06:59:50;24.20;62.80
43997;DHT22;34318;45.818;15.964;2022-09-01T07:02:20;24.20;62.80
43997;DHT22;34318;45.818;15.964;2022-09-01T07:04:52;24.20;62.70
43997;DHT22;34318;45.818;15.964;2022-09-01T07:07:19;24.30;62.50
43997;DHT22;34318;45.818;15.964;2022-09-01T07:10:05;24.20;63.00
43997;DHT22;34318;45.818;15.964;2022-09-01T07:12:53;24.10;63.10
43997;DHT22;34318;45.818;15.964;2022-09-01T07:15:39;24.20;62.90
43997;DHT22;34318;45.818;15.964;2022-09-01T07:18:27;24.20;63.30
43997;DHT22;34318;45.818;15.964;2022-09-01T07:20:54;24.20;62.80
43997;DHT22;34318;45.818;15.964;2022-09-01T07:23:41;24.20;63.10
43997;DHT22;34318;45.818;15.964;2022-09-01T07:26:29;24.20;63.20
43997;DHT22;34318;45.818;15.964;2022-09-01T07:28:57;24.20;62.90
43997;DHT22;34318;45.818;15.964;2022-09-01T07:31:39;24.10;63.60
43997;DHT22;34318;45.818;15.964;2022-09-01T07:34:26;23.90;64.30
43997;DHT22;34318;45.818;15.964;2022-09-01T07:37:14;24.00;63.40
43997;DHT22;34318;45.818;15.964;2022-09-01T07:40:02;24.10;63.30
43997;DHT22;34318;45.818;15.964;2022-09-01T07:42:54;24.10;64.20
43997;DHT22;34318;45.818;15.964;2022-09-01T07:45:28;24.10;64.30
43997;DHT22;34318;45.818;15.964;2022-09-01T07:47:56;24.20;64.50
43997;DHT22;34318;45.818;15.964;2022-09-01T07:50:28;24.30;63.60
43997;DHT22;34318;45.818;15.964;2022-09-01T07:53:17;24.30;63.20
43997;DHT22;34318;45.818;15.964;2022-09-01T07:55:45;24.40;63.30
43997;DHT22;34318;45.818;15.964;2022-09-01T07:58:12;24.30;63.40
43997;DHT22;34318;45.818;15.964;2022-09-01T08:00:40;24.30;63.60
43997;DHT22;34318;45.818;15.964;2022-09-01T08:03:10;24.30;63.50
43997;DHT22;34318;45.818;15.964;2022-09-01T08:05:37;24.20;63.50
43997;DHT22;34318;45.818;15.964;2022-09-01T08:08:04;24.30;63.30
43997;DHT22;34318;45.818;15.964;2022-09-01T08:10:45;24.20;64.00
43997;DHT22;34318;45.818;15.964;2022-09-01T08:13:16;24.20;63.60
43997;DHT22;34318;45.818;15.964;2022-09-01T08:15:46;24.20;63.90
43997;DHT22;34318;45.818;15.964;2022-09-01T08:18:33;24.20;64.60
43997;DHT22;34318;45.818;15.964;2022-09-01T08:21:17;24.20;63.50
43997;DHT22;34318;45.818;15.964;2022-09-01T08:23:44;24.30;63.30
43997;DHT22;34318;45.818;15.964;2022-09-01T08:26:14;24.30;63.40
43997;DHT22;34318;45.818;15.964;2022-09-01T08:28:41;24.30;63.20
43997;DHT22;34318;45.818;15.964;2022-09-01T08:31:15;24.40;62.70
43997;DHT22;34318;45.818;15.964;2022-09-01T08:33:44;24.30;63.00
43997;DHT22;34318;45.818;15.964;2022-09-01T08:36:13;24.30;63.00
43997;DHT22;34318;45.818;15.964;2022-09-01T08:38:43;24.30;63.30
43997;DHT22;34318;45.818;15.964;2022-09-01T08:41:29;24.30;62.90
43997;DHT22;34318;45.818;15.964;2022-09-01T08:44:40;24.30;63.50
43997;DHT22;34318;45.818;15.964;2022-09-01T08:47:11;24.30;62.80
43997;DHT22;34318;45.818;15.964;2022-09-01T08:49:42;24.40;63.30
43997;DHT22;34318;45.818;15.964;2022-09-01T08:52:27;24.40;62.40
43997;DHT22;34318;45.818;15.964;2022-09-01T08:57:40;24.40;62.50
43997;DHT22;34318;45.818;15.964;2022-09-01T09:00:11;24.40;62.70
43997;DHT22;34318;45.818;15.964;2022-09-01T09:08:47;24.40;62.50
43997;DHT22;34318;45.818;15.964;2022-09-01T09:14:46;24.30;62.60
43997;DHT22;34318;45.818;15.964;2022-09-01T09:17:19;24.30;62.50
43997;DHT22;34318;45.818;15.964;2022-09-01T09:19:47;24.30;62.60
43997;DHT22;34318;45.818;15.964;2022-09-01T09:22:17;24.40;62.20
43997;DHT22;34318;45.818;15.964;2022-09-01T09:24:52;24.40;62.40
43997;DHT22;34318;45.818;15.964;2022-09-01T09:27:32;24.30;62.00
43997;DHT22;34318;45.818;15.964;2022-09-01T09:30:20;24.30;62.70
43997;DHT22;34318;45.818;15.964;2022-09-01T09:33:01;24.30;62.40
43997;DHT22;34318;45.818;15.964;2022-09-01T09:35:53;24.40;62.50
43997;DHT22;34318;45.818;15.964;2022-09-01T09:38:24;24.30;62.60
43997;DHT22;34318;45.818;15.964;2022-09-01T09:41:05;24.30;62.50
43997;DHT22;34318;45.818;15.964;2022-09-01T09:46:43;24.30;63.40
43997;DHT22;34318;45.818;15.964;2022-09-01T09:54:31;24.20;64.60
43997;DHT22;34318;45.818;15.964;2022-09-01T09:59:37;24.40;63.80
43997;DHT22;34318;45.818;15.964;2022-09-01T10:02:42;24.40;64.00
43997;DHT22;34318;45.818;15.964;2022-09-01T10:07:59;24.40;63.70
43997;DHT22;34318;45.818;15.964;2022-09-01T10:10:51;24.30;64.10
43997;DHT22;34318;45.818;15.964;2022-09-01T10:13:25;24.40;64.10
43997;DHT22;34318;45.818;15.964;2022-09-01T10:16:01;24.40;64.30
43997;DHT22;34318;45.818;15.964;2022-09-01T10:18:38;24.30;66.20
43997;DHT22;34318;45.818;15.964;2022-09-01T10:23:33;24.40;65.40
43997;DHT22;34318;45.818;15.964;2022-09-01T10:28:57;24.50;68.30
43997;DHT22;34318;45.818;15.964;2022-09-01T10:31:29;24.50;68.60
43997;DHT22;34318;45.818;15.964;2022-09-01T10:34:01;24.50;68.80
43997;DHT22;34318;45.818;15.964;2022-09-01T10:36:33;24.50;68.60
43997;DHT22;34318;45.818;15.964;2022-09-01T10:39:06;24.50;68.60
43997;DHT22;34318;45.818;15.964;2022-09-01T10:44:16;24.40;69.40
43997;DHT22;34318;45.818;15.964;2022-09-01T10:46:45;24.50;69.30
43997;DHT22;34318;45.818;15.964;2022-09-01T10:51:56;24.50;71.30
43997;DHT22;34318;45.818;15.964;2022-09-01T10:54:54;24.50;71.20
43997;DHT22;34318;45.818;15.964;2022-09-01T10:58:18;24.60;70.30
43997;DHT22;34318;45.818;15.964;2022-09-01T11:01:06;24.60;71.10
43997;DHT22;34318;45.818;15.964;2022-09-01T11:03:59;24.50;70.40
43997;DHT22;34318;45.818;15.964;2022-09-01T11:09:33;24.60;71.60
43997;DHT22;34318;45.818;15.964;2022-09-01T11:15:01;24.70;71.60
43997;DHT22;34318;45.818;15.964;2022-09-01T11:17:37;24.70;71.10
43997;DHT22;34318;45.818;15.964;2022-09-01T11:23:28;24.70;71.40
43997;DHT22;34318;45.818;15.964;2022-09-01T11:28:59;24.80;70.70
43997;DHT22;34318;45.818;15.964;2022-09-01T11:31:37;24.90;70.60
43997;DHT22;34318;45.818;15.964;2022-09-01T11:34:16;24.90;70.30
43997;DHT22;34318;45.818;15.964;2022-09-01T11:36:51;24.80;71.30
43997;DHT22;34318;45.818;15.964;2022-09-01T11:47:39;24.90;70.30
43997;DHT22;34318;45.818;15.964;2022-09-01T11:50:17;24.90;70.00
43997;DHT22;34318;45.818;15.964;2022-09-01T11:53:03;24.80;70.80
43997;DHT22;34318;45.818;15.964;2022-09-01T11:55:50;24.80;71.10
43997;DHT22;34318;45.818;15.964;2022-09-01T11:58:39;24.90;70.60
43997;DHT22;34318;45.818;15.964;2022-09-01T12:01:34;24.90;70.70
43997;DHT22;34318;45.818;15.964;2022-09-01T12:04:29;25.00;70.30
43997;DHT22;34318;45.818;15.964;2022-09-01T12:07:43;25.00;70.40
43997;DHT22;34318;45.818;15.964;2022-09-01T12:10:35;25.00;71.00
43997;DHT22;34318;45.818;15.964;2022-09-01T12:13:21;25.00;69.50
43997;DHT22;34318;45.818;15.964;2022-09-01T12:16:05;25.10;69.20
43997;DHT22;34318;45.818;15.964;2022-09-01T12:18:47;25.10;71.00
43997;DHT22;34318;45.818;15.964;2022-09-01T12:21:32;25.10;73.70
43997;DHT22;34318;45.818;15.964;2022-09-01T12:24:20;25.10;76.00
43997;DHT22;34318;45.818;15.964;2022-09-01T12:26:53;25.00;76.00
43997;DHT22;34318;45.818;15.964;2022-09-01T12:29:21;25.10;73.70
43997;DHT22;34318;45.818;15.964;2022-09-01T12:31:53;25.20;75.80
43997;DHT22;34318;45.818;15.964;2022-09-01T12:39:47;25.00;73.50
43997;DHT22;34318;45.818;15.964;2022-09-01T12:44:49;25.10;72.60
43997;DHT22;34318;45.818;15.964;2022-09-01T12:52:32;25.00;71.80
43997;DHT22;34318;45.818;15.964;2022-09-01T12:57:34;25.00;70.50
43997;DHT22;34318;45.818;15.964;2022-09-01T13:02:43;25.00;70.50
43997;DHT22;34318;45.818;15.964;2022-09-01T13:07:55;25.00;71.20
43997;DHT22;34318;45.818;15.964;2022-09-01T13:10:25;25.00;69.60
43997;DHT22;34318;45.818;15.964;2022-09-01T13:12:54;24.90;69.80
43997;DHT22;34318;45.818;15.964;2022-09-01T13:15:24;24.90;68.30
43997;DHT22;34318;45.818;15.964;2022-09-01T13:17:51;24.90;67.60
43997;DHT22;34318;45.818;15.964;2022-09-01T13:20:18;24.90;68.00
43997;DHT22;34318;45.818;15.964;2022-09-01T13:22:45;24.90;69.00
43997;DHT22;34318;45.818;15.964;2022-09-01T13:25:15;24.90;68.30
43997;DHT22;34318;45.818;15.964;2022-09-01T13:27:44;24.90;68.20
43997;DHT22;34318;45.818;15.964;2022-09-01T13:30:18;24.90;68.50
43997;DHT22;34318;45.818;15.964;2022-09-01T13:32:46;24.90;66.80
43997;DHT22;34318;45.818;15.964;2022-09-01T13:35:33;24.90;68.30
43997;DHT22;34318;45.818;15.964;2022-09-01T13:38:00;24.90;68.00
43997;DHT22;34318;45.818;15.964;2022-09-01T13:40:27;24.90;67.00
43997;DHT22;34318;45.818;15.964;2022-09-01T13:42:54;24.90;67.40
43997;DHT22;34318;45.818;15.964;2022-09-01T13:45:22;24.90;68.20
43997;DHT22;34318;45.818;15.964;2022-09-01T13:47:52;24.80;68.10
43997;DHT22;34318;45.818;15.964;2022-09-01T13:50:39;24.70;68.10
43997;DHT22;34318;45.818;15.964;2022-09-01T13:53:26;24.80;68.10
43997;DHT22;34318;45.818;15.964;2022-09-01T13:55:53;24.80;68.50
43997;DHT22;34318;45.818;15.964;2022-09-01T13:58:20;24.80;68.40
43997;DHT22;34318;45.818;15.964;2022-09-01T14:00:50;24.70;68.30
43997;DHT22;34318;45.818;15.964;2022-09-01T14:03:20;24.70;67.90
43997;DHT22;34318;45.818;15.964;2022-09-01T14:05:48;24.70;68.90
43997;DHT22;34318;45.818;15.964;2022-09-01T14:08:18;24.70;68.30
43997;DHT22;34318;45.818;15.964;2022-09-01T14:10:51;24.90;67.40
43997;DHT22;34318;45.818;15.964;2022-09-01T14:13:21;24.90;66.90
43997;DHT22;34318;45.818;15.964;2022-09-01T14:15:48;25.00;66.70
43997;DHT22;34318;45.818;15.964;2022-09-01T14:18:16;25.00;67.10
43997;DHT22;34318;45.818;15.964;2022-09-01T14:20:46;24.90;67.20
43997;DHT22;34318;45.818;15.964;2022-09-01T14:23:14;24.90;67.30
43997;DHT22;34318;45.818;15.964;2022-09-01T14:25:50;24.80;67.40
43997;DHT22;34318;45.818;15.964;2022-09-01T14:28:19;24.80;67.10
43997;DHT22;34318;45.818;15.964;2022-09-01T14:30:48;24.80;67.50
43997;DHT22;34318;45.818;15.964;2022-09-01T14:33:15;24.90;67.50
43997;DHT22;34318;45.818;15.964;2022-09-01T14:35:46;24.80;67.30
43997;DHT22;34318;45.818;15.964;2022-09-01T14:38:13;24.80;67.30
43997;DHT22;34318;45.818;15.964;2022-09-01T14:40:41;24.90;66.70
43997;DHT22;34318;45.818;15.964;2022-09-01T14:43:10;24.90;67.10
43997;DHT22;34318;45.818;15.964;2022-09-01T14:45:41;24.90;66.50
43997;DHT22;34318;45.818;15.964;2022-09-01T14:48:12;24.90;66.50
43997;DHT22;34318;45.818;15.964;2022-09-01T14:50:42;25.00;66.00
43997;DHT22;34318;45.818;15.964;2022-09-01T14:53:10;24.90;66.10
43997;DHT22;34318;45.818;15.964;2022-09-01T14:55:38;24.90;66.00
43997;DHT22;34318;45.818;15.964;2022-09-01T14:58:09;25.00;65.80
43997;DHT22;34318;45.818;15.964;2022-09-01T15:00:36;25.00;66.00
43997;DHT22;34318;45.818;15.964;2022-09-01T15:03:04;24.90;65.70
43997;DHT22;34318;45.818;15.964;2022-09-01T15:05:34;24.90;66.70
43997;DHT22;34318;45.818;15.964;2022-09-01T15:08:07;25.00;66.40
43997;DHT22;34318;45.818;15.964;2022-09-01T15:10:34;25.00;66.20
43997;DHT22;34318;45.818;15.964;2022-09-01T15:13:02;24.90;66.40
43997;DHT22;34318;45.818;15.964;2022-09-01T15:15:29;24.90;66.40
43997;DHT22;34318;45.818;15.964;2022-09-01T15:17:56;24.90;66.10
43997;DHT22;34318;45.818;15.964;2022-09-01T15:20:24;25.00;66.20
43997;DHT22;34318;45.818;15.964;2022-09-01T15:23:10;24.90;66.00
43997;DHT22;34318;45.818;15.964;2022-09-01T15:25:37;24.90;66.20
43997;DHT22;34318;45.818;15.964;2022-09-01T15:28:04;24.90;66.20
43997;DHT22;34318;45.818;15.964;2022-09-01T15:30:32;24.90;66.30
43997;DHT22;34318;45.818;15.964;2022-09-01T15:33:00;24.90;66.20
43997;DHT22;34318;45.818;15.964;2022-09-01T15:35:29;24.90;66.10
43997;DHT22;34318;45.818;15.964;2022-09-01T15:37:56;24.90;66.40
43997;DHT22;34318;45.818;15.964;2022-09-01T15:40:24;24.90;66.10
43997;DHT22;34318;45.818;15.964;2022-09-01T15:42:52;24.90;65.90
43997;DHT22;34318;45.818;15.964;2022-09-01T15:45:22;24.90;66.20
43997;DHT22;34318;45.818;15.964;2022-09-01T15:47:49;24.90;66.10
43997;DHT22;34318;45.818;15.964;2022-09-01T15:50:19;24.90;66.20
43997;DHT22;34318;45.818;15.964;2022-09-01T15:52:54;24.90;67.10
43997;DHT22;34318;45.818;15.964;2022-09-01T15:55:25;24.90;66.50
43997;DHT22;34318;45.818;15.964;2022-09-01T15:57:52;24.90;66.30
43997;DHT22;34318;45.818;15.964;2022-09-01T16:00:24;24.90;66.40
43997;DHT22;34318;45.818;15.964;2022-09-01T16:02:52;24.90;66.30
43997;DHT22;34318;45.818;15.964;2022-09-01T16:05:23;24.90;66.30
43997;DHT22;34318;45.818;15.964;2022-09-01T16:07:51;24.90;66.20
43997;DHT22;34318;45.818;15.964;2022-09-01T16:10:19;24.90;66.50
43997;DHT22;34318;45.818;15.964;2022-09-01T16:12:46;24.90;66.10
43997;DHT22;34318;45.818;15.964;2022-09-01T16:15:19;24.90;66.00
43997;DHT22;34318;45.818;15.964;2022-09-01T16:20:35;24.90;66.50
43997;DHT22;34318;45.818;15.964;2022-09-01T16:23:24;24.80;66.50
43997;DHT22;34318;45.818;15.964;2022-09-01T16:25:59;24.70;67.70
43997;DHT22;34318;45.818;15.964;2022-09-01T16:28:31;24.80;67.20
43997;DHT22;34318;45.818;15.964;2022-09-01T16:31:11;24.80;67.00
43997;DHT22;34318;45.818;15.964;2022-09-01T16:33:48;24.70;66.80
43997;DHT22;34318;45.818;15.964;2022-09-01T16:50:55;24.80;66.60
43997;DHT22;34318;45.818;15.964;2022-09-01T16:59:19;24.80;66.60
43997;DHT22;34318;45.818;15.964;2022-09-01T17:04:48;24.80;66.60
43997;DHT22;34318;45.818;15.964;2022-09-01T17:13:11;24.80;66.90
43997;DHT22;34318;45.818;15.964;2022-09-01T17:15:47;24.80;66.70
43997;DHT22;34318;45.818;15.964;2022-09-01T17:18:36;24.80;67.00
43997;DHT22;34318;45.818;15.964;2022-09-01T17:21:15;24.80;67.00
43997;DHT22;34318;45.818;15.964;2022-09-01T17:23:52;24.80;67.00
43997;DHT22;34318;45.818;15.964;2022-09-01T17:26:25;24.80;67.10
43997;DHT22;34318;45.818;15.964;2022-09-01T17:28:59;24.80;66.70
43997;DHT22;34318;45.818;15.964;2022-09-01T17:34:47;24.80;66.50
43997;DHT22;34318;45.818;15.964;2022-09-01T17:37:16;24.90;66.40
43997;DHT22;34318;45.818;15.964;2022-09-01T17:40:12;24.90;66.70
43997;DHT22;34318;45.818;15.964;2022-09-01T17:43:02;24.90;66.40
43997;DHT22;34318;45.818;15.964;2022-09-01T17:46:14;24.80;66.40
43997;DHT22;34318;45.818;15.964;2022-09-01T17:48:59;24.80;66.60
43997;DHT22;34318;45.818;15.964;2022-09-01T17:51:47;24.80;66.60